THY518 LTFM-WSSS
Flight info
| Callsign | THY518 |
|---|---|
| Flight time | N/A |
| Altitude | 35000 |
| Route | VICEN UT380 ASMAP UL333 LATGA UT363 ESB DCT REBLO M11 MATAL T916 SUBUT T923 ERLEV M11 RODAR A909 ABEKO/N0476F370 A909 LEMOD N644 REGET G325 LAKRA P500 PS T400 SULOM M890 LKN R460 BBN/N0482F390 R460 CEA L507 BKK R201 BUT Y11 PIDEL M904 UPRON Q803 ELALO ELALO1B |
| Aircraft | B77W/H-SDE1E2E3FGHIJ2J3J4J5M1RWXY/LB1D1 |
Departure
| Time | 2026-05-06 10:37 |
|---|---|
| Airport | İstanbul Airport (LTFM) |
Arrival
| Time | N/A |
|---|---|
| Airport | Singapore Changi Airport (WSSS) |
| Time | Latitude | Longitude | Altitude | Speed | Heading |
|---|---|---|---|---|---|
| 2026-05-06 10:26 | 41.26788 | 28.73529 | 339 ft | 0 kts | 178° |
| 2026-05-06 10:27 | 41.26806 | 28.73528 | 336 ft | 4 kts | 178° |
| 2026-05-06 10:28 | 41.26833 | 28.73527 | 333 ft | 4 kts | 179° |
| 2026-05-06 10:28 | 41.26856 | 28.73528 | 339 ft | 4 kts | 206° |
| 2026-05-06 10:28 | 41.26870 | 28.73551 | 333 ft | 4 kts | 261° |
| 2026-05-06 10:28 | 41.26872 | 28.73584 | 339 ft | 2 kts | 269° |
| 2026-05-06 10:29 | 41.26872 | 28.73592 | 339 ft | 0 kts | 269° |
| 2026-05-06 10:32 | 41.26872 | 28.73591 | 338 ft | 0 kts | 269° |
| 2026-05-06 10:32 | 41.26872 | 28.73550 | 334 ft | 8 kts | 269° |
| 2026-05-06 10:32 | 41.26871 | 28.73475 | 339 ft | 8 kts | 269° |
| 2026-05-06 10:33 | 41.26869 | 28.73383 | 339 ft | 14 kts | 269° |
| 2026-05-06 10:33 | 41.26868 | 28.73233 | 337 ft | 17 kts | 269° |
| 2026-05-06 10:33 | 41.26836 | 28.73110 | 335 ft | 15 kts | 201° |
| 2026-05-06 10:33 | 41.26732 | 28.73107 | 337 ft | 15 kts | 178° |
| 2026-05-06 10:34 | 41.26627 | 28.73110 | 334 ft | 15 kts | 179° |
| 2026-05-06 10:34 | 41.26522 | 28.73114 | 334 ft | 15 kts | 179° |
| 2026-05-06 10:34 | 41.26402 | 28.73117 | 334 ft | 20 kts | 179° |
| 2026-05-06 10:34 | 41.26261 | 28.73114 | 334 ft | 21 kts | 190° |
| 2026-05-06 10:35 | 41.26214 | 28.73017 | 336 ft | 10 kts | 273° |
| 2026-05-06 10:35 | 41.26215 | 28.72972 | 339 ft | 0 kts | 270° |
| 2026-05-06 10:35 | 41.26215 | 28.72958 | 339 ft | 8 kts | 270° |
| 2026-05-06 10:35 | 41.26215 | 28.72777 | 336 ft | 18 kts | 270° |
| 2026-05-06 10:36 | 41.26216 | 28.72601 | 336 ft | 19 kts | 278° |
| 2026-05-06 10:36 | 41.26336 | 28.72524 | 337 ft | 29 kts | 359° |
| 2026-05-06 10:36 | 41.26736 | 28.72519 | 336 ft | 96 kts | 357° |
| 2026-05-06 10:36 | 41.27683 | 28.72486 | 336 ft | 174 kts | 360° |
| 2026-05-06 10:37 | 41.29029 | 28.72487 | 730 ft | 201 kts | 3° |
| 2026-05-06 10:37 | 41.30455 | 28.72529 | 1547 ft | 207 kts | 2° |
| 2026-05-06 10:37 | 41.31893 | 28.72468 | 2656 ft | 207 kts | 358° |
| 2026-05-06 10:37 | 41.33409 | 28.72388 | 3112 ft | 234 kts | 0° |
| 2026-05-06 10:38 | 41.35128 | 28.72412 | 3501 ft | 254 kts | 355° |
| 2026-05-06 10:38 | 41.36796 | 28.71602 | 4172 ft | 263 kts | 320° |
| 2026-05-06 10:38 | 41.37876 | 28.69676 | 5119 ft | 263 kts | 291° |
| 2026-05-06 10:38 | 41.38205 | 28.67277 | 5986 ft | 266 kts | 271° |
| 2026-05-06 10:39 | 41.38169 | 28.64776 | 6764 ft | 274 kts | 270° |
| 2026-05-06 10:39 | 41.38114 | 28.62229 | 7624 ft | 276 kts | 270° |
| 2026-05-06 10:39 | 41.38052 | 28.59651 | 8423 ft | 279 kts | 264° |
| 2026-05-06 10:39 | 41.37363 | 28.57202 | 9064 ft | 292 kts | 233° |
| 2026-05-06 10:40 | 41.35780 | 28.55504 | 9848 ft | 299 kts | 203° |
| 2026-05-06 10:40 | 41.33732 | 28.54991 | 10531 ft | 305 kts | 180° |
| 2026-05-06 10:40 | 41.31525 | 28.55047 | 10772 ft | 331 kts | 178° |
| 2026-05-06 10:40 | 41.29167 | 28.55143 | 10990 ft | 357 kts | 178° |
| 2026-05-06 10:41 | 41.26600 | 28.55305 | 11175 ft | 378 kts | 171° |
| 2026-05-06 10:41 | 41.24096 | 28.56494 | 11706 ft | 390 kts | 147° |
| 2026-05-06 10:41 | 41.22033 | 28.58811 | 12559 ft | 389 kts | 133° |
| 2026-05-06 10:41 | 41.20106 | 28.61395 | 13259 ft | 398 kts | 133° |
| 2026-05-06 10:42 | 41.18122 | 28.63993 | 14119 ft | 402 kts | 134° |
| 2026-05-06 10:42 | 41.16100 | 28.66589 | 15077 ft | 404 kts | 134° |
| 2026-05-06 10:42 | 41.14069 | 28.69198 | 15910 ft | 409 kts | 133° |
| 2026-05-06 10:42 | 41.12070 | 28.71913 | 16709 ft | 412 kts | 128° |
| 2026-05-06 10:43 | 41.10412 | 28.75050 | 17398 ft | 417 kts | 119° |
| 2026-05-06 10:43 | 41.08913 | 28.78373 | 18165 ft | 422 kts | 119° |
| 2026-05-06 10:43 | 41.07389 | 28.81666 | 18913 ft | 426 kts | 120° |
| 2026-05-06 10:44 | 41.04135 | 28.88354 | 20335 ft | 436 kts | 121° |
| 2026-05-06 10:44 | 41.02475 | 28.91754 | 21003 ft | 441 kts | 122° |
| 2026-05-06 10:44 | 41.00558 | 28.94948 | 21614 ft | 447 kts | 133° |
| 2026-05-06 10:44 | 40.98290 | 28.97801 | 22192 ft | 453 kts | 136° |
| 2026-05-06 10:45 | 40.95968 | 29.00646 | 22788 ft | 457 kts | 136° |
| 2026-05-06 10:45 | 40.93646 | 29.03557 | 23400 ft | 461 kts | 135° |
| 2026-05-06 10:45 | 40.91337 | 29.06521 | 23975 ft | 465 kts | 135° |
| 2026-05-06 10:45 | 40.89016 | 29.09537 | 24546 ft | 469 kts | 134° |
| 2026-05-06 10:46 | 40.86685 | 29.12573 | 25130 ft | 471 kts | 134° |
| 2026-05-06 10:46 | 40.84579 | 29.15885 | 25469 ft | 475 kts | 120° |
| 2026-05-06 10:46 | 40.83314 | 29.19897 | 25839 ft | 473 kts | 101° |
| 2026-05-06 10:46 | 40.82661 | 29.24113 | 26251 ft | 477 kts | 100° |
| 2026-05-06 10:47 | 40.81903 | 29.28389 | 26723 ft | 481 kts | 102° |
| 2026-05-06 10:47 | 40.81048 | 29.32684 | 27241 ft | 484 kts | 103° |
| 2026-05-06 10:47 | 40.80180 | 29.36981 | 27706 ft | 487 kts | 103° |
| 2026-05-06 10:47 | 40.79305 | 29.41315 | 28136 ft | 491 kts | 103° |
| 2026-05-06 10:48 | 40.78421 | 29.45687 | 28516 ft | 495 kts | 103° |
| 2026-05-06 10:48 | 40.77518 | 29.50093 | 28904 ft | 498 kts | 103° |
| 2026-05-06 10:48 | 40.76626 | 29.54530 | 29264 ft | 502 kts | 102° |
| 2026-05-06 10:48 | 40.75748 | 29.59001 | 29637 ft | 504 kts | 102° |
| 2026-05-06 10:49 | 40.74857 | 29.63477 | 30017 ft | 506 kts | 102° |
| 2026-05-06 10:49 | 40.73950 | 29.67967 | 30422 ft | 506 kts | 102° |
| 2026-05-06 10:49 | 40.73196 | 29.72471 | 30870 ft | 500 kts | 94° |
| 2026-05-06 10:49 | 40.73037 | 29.77033 | 31281 ft | 496 kts | 86° |
| 2026-05-06 10:50 | 40.73106 | 29.81568 | 31714 ft | 495 kts | 86° |
| 2026-05-06 10:50 | 40.73132 | 29.86109 | 32137 ft | 495 kts | 87° |
| 2026-05-06 10:50 | 40.73094 | 29.90648 | 32554 ft | 495 kts | 88° |
| 2026-05-06 10:50 | 40.73012 | 29.95118 | 32966 ft | 494 kts | 88° |
| 2026-05-06 10:51 | 40.72915 | 29.99639 | 33376 ft | 493 kts | 88° |
| 2026-05-06 10:51 | 40.72819 | 30.04156 | 33766 ft | 492 kts | 88° |
| 2026-05-06 10:51 | 40.72447 | 30.08649 | 34139 ft | 497 kts | 102° |
| 2026-05-06 10:51 | 40.71335 | 30.12969 | 34490 ft | 498 kts | 108° |
| 2026-05-06 10:52 | 40.70077 | 30.17231 | 34794 ft | 499 kts | 108° |
| 2026-05-06 10:52 | 40.68856 | 30.21520 | 35020 ft | 501 kts | 107° |
| 2026-05-06 10:52 | 40.67688 | 30.25868 | 35063 ft | 504 kts | 107° |
| 2026-05-06 10:53 | 40.65955 | 30.34715 | 35123 ft | 494 kts | 92° |
| 2026-05-06 10:53 | 40.65358 | 30.43692 | 35111 ft | 491 kts | 91° |
| 2026-05-06 10:54 | 40.64700 | 30.52653 | 35102 ft | 492 kts | 93° |
| 2026-05-06 10:54 | 40.63929 | 30.61599 | 35099 ft | 492 kts | 94° |
| 2026-05-06 10:55 | 40.63115 | 30.70493 | 35104 ft | 494 kts | 96° |
| 2026-05-06 10:55 | 40.61460 | 30.79305 | 35119 ft | 497 kts | 103° |
| 2026-05-06 10:56 | 40.59536 | 30.88033 | 35114 ft | 497 kts | 103° |
| 2026-05-06 10:56 | 40.57667 | 30.96778 | 35107 ft | 496 kts | 103° |
| 2026-05-06 10:57 | 40.55809 | 31.05523 | 35114 ft | 497 kts | 102° |
| 2026-05-06 10:57 | 40.53940 | 31.14280 | 35104 ft | 497 kts | 102° |
| 2026-05-06 10:58 | 40.52065 | 31.23031 | 35109 ft | 497 kts | 103° |
| 2026-05-06 10:58 | 40.50174 | 31.31782 | 35095 ft | 498 kts | 103° |
| 2026-05-06 10:59 | 40.48294 | 31.40497 | 35114 ft | 499 kts | 103° |
| 2026-05-06 10:59 | 40.46397 | 31.49252 | 35111 ft | 498 kts | 103° |
| 2026-05-06 11:00 | 40.44484 | 31.58014 | 35112 ft | 500 kts | 103° |
| 2026-05-06 11:00 | 40.42563 | 31.66798 | 35117 ft | 501 kts | 103° |
| 2026-05-06 11:01 | 40.40640 | 31.75598 | 35111 ft | 503 kts | 103° |
| 2026-05-06 11:01 | 40.38715 | 31.84366 | 35106 ft | 503 kts | 103° |
| 2026-05-06 11:02 | 40.36767 | 31.93189 | 35117 ft | 504 kts | 103° |
| 2026-05-06 11:02 | 40.34740 | 32.01992 | 35106 ft | 504 kts | 103° |
| 2026-05-06 11:03 | 40.32734 | 32.10807 | 35108 ft | 505 kts | 103° |
| 2026-05-06 11:03 | 40.30939 | 32.19707 | 35069 ft | 506 kts | 101° |
| 2026-05-06 11:04 | 40.29231 | 32.28649 | 35102 ft | 504 kts | 101° |
| 2026-05-06 11:04 | 40.27518 | 32.37534 | 35104 ft | 502 kts | 101° |
| 2026-05-06 11:05 | 40.25765 | 32.46389 | 35098 ft | 501 kts | 101° |
| 2026-05-06 11:05 | 40.24005 | 32.55166 | 35109 ft | 500 kts | 101° |
| 2026-05-06 11:06 | 40.22239 | 32.63993 | 35100 ft | 500 kts | 102° |
| 2026-05-06 11:06 | 40.20473 | 32.72774 | 35097 ft | 499 kts | 102° |
| 2026-05-06 11:07 | 40.18718 | 32.81489 | 35109 ft | 498 kts | 101° |
| 2026-05-06 11:07 | 40.16937 | 32.90254 | 35099 ft | 499 kts | 102° |
| 2026-05-06 11:08 | 40.15433 | 32.99077 | 35099 ft | 495 kts | 93° |
| 2026-05-06 11:08 | 40.15359 | 33.08028 | 35080 ft | 490 kts | 81° |
| 2026-05-06 11:09 | 40.16344 | 33.16813 | 35100 ft | 488 kts | 78° |
| 2026-05-06 11:09 | 40.17371 | 33.25602 | 35104 ft | 490 kts | 79° |
| 2026-05-06 11:10 | 40.18363 | 33.34421 | 35104 ft | 491 kts | 79° |
| 2026-05-06 11:10 | 40.19257 | 33.43246 | 35115 ft | 493 kts | 80° |
| 2026-05-06 11:11 | 40.20234 | 33.52171 | 35103 ft | 496 kts | 79° |
| 2026-05-06 11:11 | 40.21236 | 33.61109 | 35108 ft | 497 kts | 80° |
| 2026-05-06 11:12 | 40.22203 | 33.70088 | 35106 ft | 498 kts | 80° |
| 2026-05-06 11:12 | 40.23144 | 33.79065 | 35103 ft | 498 kts | 80° |
| 2026-05-06 11:13 | 40.24078 | 33.88047 | 35101 ft | 498 kts | 80° |
| 2026-05-06 11:13 | 40.25010 | 33.97028 | 35102 ft | 498 kts | 80° |
| 2026-05-06 11:14 | 40.25780 | 34.04489 | 35086 ft | 498 kts | 81° |
| 2026-05-06 11:14 | 40.26698 | 34.13461 | 35100 ft | 496 kts | 81° |
| 2026-05-06 11:15 | 40.27611 | 34.22421 | 35095 ft | 496 kts | 81° |
| 2026-05-06 11:15 | 40.28475 | 34.31374 | 35092 ft | 495 kts | 81° |
| 2026-05-06 11:16 | 40.29382 | 34.40322 | 35096 ft | 495 kts | 81° |
| 2026-05-06 11:16 | 40.30270 | 34.49292 | 35077 ft | 496 kts | 81° |
| 2026-05-06 11:17 | 40.31167 | 34.58248 | 35097 ft | 496 kts | 81° |
| 2026-05-06 11:17 | 40.32044 | 34.67166 | 35096 ft | 496 kts | 81° |
| 2026-05-06 11:18 | 40.32930 | 34.76138 | 35085 ft | 496 kts | 82° |
| 2026-05-06 11:18 | 40.33793 | 34.85103 | 35078 ft | 496 kts | 82° |
| 2026-05-06 11:19 | 40.34630 | 34.94047 | 35082 ft | 494 kts | 82° |
| 2026-05-06 11:19 | 40.35475 | 35.02989 | 35077 ft | 493 kts | 82° |
| 2026-05-06 11:20 | 40.36313 | 35.11897 | 35081 ft | 492 kts | 82° |
| 2026-05-06 11:20 | 40.37136 | 35.20815 | 35090 ft | 493 kts | 83° |
| 2026-05-06 11:21 | 40.37962 | 35.29758 | 35102 ft | 495 kts | 83° |
| 2026-05-06 11:21 | 40.38776 | 35.38690 | 35093 ft | 497 kts | 83° |
| 2026-05-06 11:22 | 40.39591 | 35.47707 | 35083 ft | 498 kts | 83° |
| 2026-05-06 11:22 | 40.40411 | 35.56727 | 35075 ft | 499 kts | 83° |
| 2026-05-06 11:23 | 40.41200 | 35.65779 | 35096 ft | 499 kts | 83° |
| 2026-05-06 11:23 | 40.42010 | 35.74840 | 35098 ft | 499 kts | 83° |
| 2026-05-06 11:24 | 40.42797 | 35.83852 | 35098 ft | 500 kts | 83° |
| 2026-05-06 11:24 | 40.43595 | 35.92922 | 35100 ft | 500 kts | 84° |
| 2026-05-06 11:25 | 40.44359 | 36.02000 | 35090 ft | 500 kts | 84° |
| 2026-05-06 11:25 | 40.45122 | 36.11072 | 35108 ft | 500 kts | 84° |
| 2026-05-06 11:26 | 40.45881 | 36.20128 | 35104 ft | 499 kts | 84° |
| 2026-05-06 11:26 | 40.46629 | 36.29202 | 35092 ft | 500 kts | 84° |
| 2026-05-06 11:27 | 40.47384 | 36.38284 | 35101 ft | 500 kts | 84° |
| 2026-05-06 11:27 | 40.48128 | 36.47364 | 35102 ft | 499 kts | 84° |
| 2026-05-06 11:28 | 40.48867 | 36.56427 | 35101 ft | 498 kts | 84° |
| 2026-05-06 11:28 | 40.49582 | 36.65409 | 35107 ft | 497 kts | 84° |
| 2026-05-06 11:29 | 40.50277 | 36.74454 | 35107 ft | 497 kts | 84° |
| 2026-05-06 11:29 | 40.50990 | 36.83487 | 35118 ft | 498 kts | 85° |
| 2026-05-06 11:30 | 40.51707 | 36.92538 | 35109 ft | 498 kts | 85° |
| 2026-05-06 11:30 | 40.52409 | 37.01590 | 35117 ft | 498 kts | 85° |
| 2026-05-06 11:31 | 40.53096 | 37.10653 | 35117 ft | 498 kts | 85° |
| 2026-05-06 11:31 | 40.53776 | 37.19725 | 35120 ft | 498 kts | 85° |
| 2026-05-06 11:32 | 40.54447 | 37.28781 | 35108 ft | 498 kts | 85° |
| 2026-05-06 11:32 | 40.55118 | 37.37833 | 35121 ft | 497 kts | 85° |
| 2026-05-06 11:33 | 40.55782 | 37.46821 | 35124 ft | 497 kts | 85° |
| 2026-05-06 11:33 | 40.56432 | 37.55884 | 35129 ft | 499 kts | 85° |
| 2026-05-06 11:34 | 40.57076 | 37.64982 | 35143 ft | 500 kts | 86° |
| 2026-05-06 11:34 | 40.57714 | 37.74115 | 35143 ft | 501 kts | 86° |
| 2026-05-06 11:35 | 40.58354 | 37.83265 | 35133 ft | 502 kts | 86° |
| 2026-05-06 11:35 | 40.58988 | 37.92420 | 35154 ft | 502 kts | 86° |
| 2026-05-06 11:36 | 40.59614 | 38.01588 | 35150 ft | 503 kts | 86° |
| 2026-05-06 11:36 | 40.60228 | 38.10708 | 35137 ft | 504 kts | 86° |
| 2026-05-06 11:37 | 40.60842 | 38.19960 | 35149 ft | 504 kts | 86° |
| 2026-05-06 11:37 | 40.61438 | 38.29102 | 35160 ft | 503 kts | 85° |
| 2026-05-06 11:38 | 40.62066 | 38.38280 | 35144 ft | 503 kts | 86° |
| 2026-05-06 11:38 | 40.62640 | 38.47452 | 35141 ft | 503 kts | 87° |
| 2026-05-06 11:39 | 40.63215 | 38.56625 | 35146 ft | 503 kts | 87° |
| 2026-05-06 11:39 | 40.63784 | 38.65809 | 35148 ft | 503 kts | 86° |
| 2026-05-06 11:40 | 40.64347 | 38.75003 | 35137 ft | 504 kts | 87° |
| 2026-05-06 11:40 | 40.64900 | 38.84132 | 35134 ft | 503 kts | 87° |
| 2026-05-06 11:41 | 40.65450 | 38.93305 | 35139 ft | 503 kts | 87° |
| 2026-05-06 11:41 | 40.65991 | 39.02490 | 35138 ft | 503 kts | 87° |
| 2026-05-06 11:42 | 40.66536 | 39.11687 | 35129 ft | 503 kts | 87° |
| 2026-05-06 11:42 | 40.67069 | 39.20865 | 35144 ft | 503 kts | 87° |
| 2026-05-06 11:43 | 40.67591 | 39.30066 | 35129 ft | 504 kts | 87° |
| 2026-05-06 11:43 | 40.68129 | 39.39298 | 35140 ft | 506 kts | 87° |
| 2026-05-06 11:44 | 40.68887 | 39.53125 | 35152 ft | 506 kts | 88° |
| 2026-05-06 11:44 | 40.69368 | 39.62395 | 35158 ft | 507 kts | 88° |
| 2026-05-06 11:45 | 40.69863 | 39.71681 | 35151 ft | 507 kts | 88° |
| 2026-05-06 11:45 | 40.70351 | 39.80961 | 35146 ft | 508 kts | 88° |
| 2026-05-06 11:46 | 40.70856 | 39.90249 | 35142 ft | 509 kts | 88° |
| 2026-05-06 11:46 | 40.71322 | 39.99499 | 35156 ft | 509 kts | 88° |
| 2026-05-06 11:47 | 40.71711 | 40.08819 | 35143 ft | 509 kts | 88° |
| 2026-05-06 11:47 | 40.72180 | 40.18135 | 35150 ft | 510 kts | 88° |
| 2026-05-06 11:48 | 40.72663 | 40.27473 | 35139 ft | 511 kts | 88° |
| 2026-05-06 11:48 | 40.73125 | 40.36827 | 35136 ft | 512 kts | 88° |
| 2026-05-06 11:49 | 40.73567 | 40.46178 | 35141 ft | 512 kts | 88° |
| 2026-05-06 11:49 | 40.73993 | 40.55556 | 35135 ft | 510 kts | 88° |
| 2026-05-06 11:50 | 40.74406 | 40.64828 | 35147 ft | 510 kts | 88° |
| 2026-05-06 11:50 | 40.74823 | 40.74172 | 35151 ft | 510 kts | 89° |
| 2026-05-06 11:51 | 40.75229 | 40.83520 | 35134 ft | 509 kts | 89° |
| 2026-05-06 11:51 | 40.75631 | 40.92840 | 35135 ft | 509 kts | 89° |
| 2026-05-06 11:52 | 40.76022 | 41.02170 | 35127 ft | 509 kts | 89° |
| 2026-05-06 11:52 | 40.76402 | 41.11444 | 35137 ft | 509 kts | 89° |
| 2026-05-06 11:53 | 40.76783 | 41.20757 | 35157 ft | 508 kts | 89° |
| 2026-05-06 11:53 | 40.77147 | 41.30096 | 35125 ft | 511 kts | 89° |
| 2026-05-06 11:54 | 40.77505 | 41.39469 | 35135 ft | 511 kts | 89° |
| 2026-05-06 11:54 | 40.77859 | 41.48848 | 35128 ft | 512 kts | 89° |
| 2026-05-06 11:55 | 40.78207 | 41.58250 | 35134 ft | 513 kts | 89° |
| 2026-05-06 11:55 | 40.78545 | 41.67610 | 35112 ft | 513 kts | 89° |
| 2026-05-06 11:56 | 40.78884 | 41.77026 | 35112 ft | 514 kts | 89° |
| 2026-05-06 11:56 | 40.79215 | 41.86444 | 35116 ft | 513 kts | 89° |
| 2026-05-06 11:57 | 40.79521 | 41.95851 | 35112 ft | 513 kts | 89° |
| 2026-05-06 11:57 | 40.79830 | 42.05281 | 35116 ft | 515 kts | 90° |
| 2026-05-06 11:58 | 40.80143 | 42.14733 | 35105 ft | 516 kts | 90° |
| 2026-05-06 11:58 | 40.80441 | 42.24206 | 35097 ft | 516 kts | 90° |
| 2026-05-06 11:59 | 40.80734 | 42.33668 | 35104 ft | 516 kts | 90° |
| 2026-05-06 11:59 | 40.81011 | 42.43140 | 35089 ft | 516 kts | 90° |
| 2026-05-06 12:00 | 40.81234 | 42.50996 | 35097 ft | 515 kts | 90° |
| 2026-05-06 12:00 | 40.81547 | 42.61973 | 35091 ft | 514 kts | 90° |
| 2026-05-06 12:01 | 40.81759 | 42.69820 | 35079 ft | 515 kts | 90° |
| 2026-05-06 12:01 | 40.81998 | 42.79287 | 35095 ft | 516 kts | 91° |
| 2026-05-06 12:02 | 40.82248 | 42.88772 | 35076 ft | 517 kts | 90° |
| 2026-05-06 12:02 | 40.82499 | 42.98283 | 35071 ft | 519 kts | 91° |
| 2026-05-06 12:03 | 40.82719 | 43.07821 | 35082 ft | 520 kts | 91° |
| 2026-05-06 12:03 | 40.82940 | 43.17368 | 35079 ft | 521 kts | 91° |
| 2026-05-06 12:04 | 40.83154 | 43.26954 | 35077 ft | 522 kts | 91° |
| 2026-05-06 12:04 | 40.83364 | 43.36524 | 35060 ft | 522 kts | 91° |
| 2026-05-06 12:05 | 40.83540 | 43.46058 | 35063 ft | 522 kts | 91° |
| 2026-05-06 12:05 | 40.83748 | 43.55662 | 35057 ft | 523 kts | 91° |
| 2026-05-06 12:06 | 40.83900 | 43.65267 | 35048 ft | 523 kts | 91° |
| 2026-05-06 12:06 | 40.83905 | 43.74848 | 35051 ft | 520 kts | 96° |
| 2026-05-06 12:07 | 40.83454 | 43.84387 | 35051 ft | 520 kts | 96° |
| 2026-05-06 12:07 | 40.83109 | 43.93880 | 35046 ft | 521 kts | 95° |
| 2026-05-06 12:08 | 40.82812 | 44.03445 | 35040 ft | 521 kts | 95° |
| 2026-05-06 12:08 | 40.82497 | 44.13018 | 35049 ft | 522 kts | 96° |
| 2026-05-06 12:09 | 40.82162 | 44.22600 | 35044 ft | 523 kts | 96° |
| 2026-05-06 12:09 | 40.81810 | 44.32194 | 35041 ft | 525 kts | 96° |
| 2026-05-06 12:10 | 40.81458 | 44.41842 | 35030 ft | 527 kts | 96° |
| 2026-05-06 12:10 | 40.81090 | 44.51491 | 35063 ft | 525 kts | 96° |
| 2026-05-06 12:11 | 40.80720 | 44.61118 | 35056 ft | 525 kts | 96° |
| 2026-05-06 12:11 | 40.80341 | 44.70700 | 35016 ft | 526 kts | 97° |
| 2026-05-06 12:12 | 40.79947 | 44.80348 | 34986 ft | 526 kts | 96° |
| 2026-05-06 12:12 | 40.79555 | 44.89992 | 35005 ft | 524 kts | 97° |
| 2026-05-06 12:13 | 40.79151 | 44.99603 | 35003 ft | 524 kts | 97° |
| 2026-05-06 12:13 | 40.78742 | 45.09214 | 35009 ft | 524 kts | 97° |
| 2026-05-06 12:14 | 40.78327 | 45.18742 | 35028 ft | 523 kts | 97° |
| 2026-05-06 12:14 | 40.77916 | 45.28337 | 35021 ft | 524 kts | 97° |
| 2026-05-06 12:15 | 40.77470 | 45.37957 | 35024 ft | 525 kts | 97° |
| 2026-05-06 12:15 | 40.77041 | 45.47607 | 35022 ft | 528 kts | 95° |
| 2026-05-06 12:16 | 40.77504 | 45.57279 | 35024 ft | 534 kts | 84° |
| 2026-05-06 12:16 | 40.78595 | 45.66991 | 35027 ft | 536 kts | 84° |
| 2026-05-06 12:17 | 40.79643 | 45.76739 | 35027 ft | 538 kts | 85° |
| 2026-05-06 12:17 | 40.80640 | 45.86520 | 35018 ft | 537 kts | 85° |
| 2026-05-06 12:18 | 40.81627 | 45.96298 | 35026 ft | 537 kts | 85° |
| 2026-05-06 12:18 | 40.82577 | 46.06078 | 35014 ft | 536 kts | 86° |
| 2026-05-06 12:19 | 40.83530 | 46.15844 | 35029 ft | 537 kts | 85° |
| 2026-05-06 12:19 | 40.84502 | 46.25570 | 35036 ft | 537 kts | 86° |
| 2026-05-06 12:20 | 40.85461 | 46.35345 | 35033 ft | 537 kts | 86° |
| 2026-05-06 12:20 | 40.86406 | 46.45140 | 35024 ft | 537 kts | 86° |
| 2026-05-06 12:21 | 40.87340 | 46.54938 | 35034 ft | 537 kts | 86° |
| 2026-05-06 12:21 | 40.88266 | 46.64722 | 35030 ft | 537 kts | 86° |
| 2026-05-06 12:22 | 40.89186 | 46.74515 | 35040 ft | 536 kts | 86° |
| 2026-05-06 12:22 | 40.89781 | 46.84233 | 35023 ft | 531 kts | 93° |
| 2026-05-06 12:23 | 40.89285 | 46.93918 | 35031 ft | 525 kts | 101° |
| 2026-05-06 12:23 | 40.88427 | 47.03502 | 35041 ft | 526 kts | 101° |
| 2026-05-06 12:24 | 40.87645 | 47.13130 | 35039 ft | 528 kts | 101° |
| 2026-05-06 12:24 | 40.86920 | 47.22812 | 35013 ft | 530 kts | 100° |
| 2026-05-06 12:25 | 40.86213 | 47.32500 | 35029 ft | 530 kts | 100° |
| 2026-05-06 12:25 | 40.85484 | 47.42196 | 35025 ft | 530 kts | 101° |
| 2026-05-06 12:26 | 40.84745 | 47.51810 | 35026 ft | 529 kts | 101° |
| 2026-05-06 12:26 | 40.84092 | 47.61507 | 35017 ft | 529 kts | 99° |
| 2026-05-06 12:27 | 40.83529 | 47.71231 | 35021 ft | 531 kts | 99° |
| 2026-05-06 12:27 | 40.82946 | 47.80968 | 35020 ft | 532 kts | 99° |
| 2026-05-06 12:28 | 40.82333 | 47.90701 | 35021 ft | 532 kts | 100° |
| 2026-05-06 12:28 | 40.81678 | 48.00464 | 35026 ft | 533 kts | 100° |
| 2026-05-06 12:29 | 40.81049 | 48.10148 | 35026 ft | 533 kts | 100° |
| 2026-05-06 12:29 | 40.80412 | 48.19889 | 35028 ft | 533 kts | 100° |
| 2026-05-06 12:30 | 40.79764 | 48.29643 | 35029 ft | 533 kts | 100° |
| 2026-05-06 12:30 | 40.79109 | 48.39382 | 35028 ft | 532 kts | 100° |
| 2026-05-06 12:31 | 40.78461 | 48.49103 | 35023 ft | 531 kts | 101° |
| 2026-05-06 12:31 | 40.77773 | 48.58815 | 35003 ft | 531 kts | 101° |
| 2026-05-06 12:32 | 40.77099 | 48.68499 | 35010 ft | 530 kts | 101° |
| 2026-05-06 12:32 | 40.76394 | 48.78177 | 34994 ft | 529 kts | 101° |
| 2026-05-06 12:33 | 40.75700 | 48.87843 | 35002 ft | 529 kts | 101° |
| 2026-05-06 12:33 | 40.74994 | 48.97452 | 34998 ft | 531 kts | 101° |
| 2026-05-06 12:34 | 40.74275 | 49.07150 | 34984 ft | 531 kts | 101° |
| 2026-05-06 12:34 | 40.73553 | 49.16847 | 34996 ft | 530 kts | 101° |
| 2026-05-06 12:35 | 40.72812 | 49.26513 | 34984 ft | 528 kts | 103° |
| 2026-05-06 12:35 | 40.71700 | 49.36059 | 35008 ft | 526 kts | 106° |
| 2026-05-06 12:36 | 40.70499 | 49.45517 | 34991 ft | 526 kts | 105° |
| 2026-05-06 12:36 | 40.69373 | 49.55049 | 35002 ft | 528 kts | 104° |
| 2026-05-06 12:37 | 40.68235 | 49.64617 | 34999 ft | 528 kts | 105° |
| 2026-05-06 12:37 | 40.67058 | 49.74168 | 34980 ft | 528 kts | 105° |
| 2026-05-06 12:38 | 40.65877 | 49.83732 | 34998 ft | 529 kts | 105° |
| 2026-05-06 12:38 | 40.64693 | 49.93297 | 34991 ft | 530 kts | 105° |
| 2026-05-06 12:39 | 40.63502 | 50.02881 | 35001 ft | 531 kts | 106° |
| 2026-05-06 12:39 | 40.62302 | 50.12470 | 34999 ft | 531 kts | 105° |
| 2026-05-06 12:40 | 40.61111 | 50.21992 | 34998 ft | 529 kts | 105° |
| 2026-05-06 12:40 | 40.59894 | 50.31542 | 34989 ft | 529 kts | 106° |
| 2026-05-06 12:41 | 40.58667 | 50.41087 | 34999 ft | 530 kts | 106° |
| 2026-05-06 12:41 | 40.57436 | 50.50629 | 34985 ft | 529 kts | 106° |
| 2026-05-06 12:42 | 40.56198 | 50.60172 | 34984 ft | 528 kts | 106° |
| 2026-05-06 12:42 | 40.54958 | 50.69683 | 34986 ft | 527 kts | 106° |
| 2026-05-06 12:43 | 40.53697 | 50.79182 | 34985 ft | 525 kts | 107° |
| 2026-05-06 12:43 | 40.52448 | 50.88587 | 35001 ft | 526 kts | 106° |
| 2026-05-06 12:44 | 40.51394 | 50.98138 | 34989 ft | 529 kts | 103° |
| 2026-05-06 12:44 | 40.50559 | 51.07748 | 34975 ft | 529 kts | 102° |
| 2026-05-06 12:45 | 40.49720 | 51.17340 | 34983 ft | 529 kts | 103° |
| 2026-05-06 12:46 | 40.48396 | 51.31716 | 34968 ft | 528 kts | 103° |
| 2026-05-06 12:46 | 40.47577 | 51.41330 | 34972 ft | 528 kts | 103° |
| 2026-05-06 12:47 | 40.46539 | 51.50885 | 34946 ft | 525 kts | 107° |
| 2026-05-06 12:47 | 40.44885 | 51.60155 | 34952 ft | 520 kts | 110° |
| 2026-05-06 12:48 | 40.43161 | 51.69307 | 34958 ft | 519 kts | 110° |
| 2026-05-06 12:48 | 40.41718 | 51.76981 | 34961 ft | 521 kts | 110° |
| 2026-05-06 12:49 | 40.39999 | 51.86246 | 34949 ft | 523 kts | 110° |
| 2026-05-06 12:49 | 40.38279 | 51.95514 | 34944 ft | 523 kts | 110° |
| 2026-05-06 12:50 | 40.36541 | 52.04803 | 34944 ft | 524 kts | 110° |
| 2026-05-06 12:50 | 40.34809 | 52.14090 | 34942 ft | 523 kts | 110° |
| 2026-05-06 12:51 | 40.33056 | 52.23344 | 34932 ft | 523 kts | 110° |
| 2026-05-06 12:51 | 40.31288 | 52.32613 | 34931 ft | 524 kts | 110° |
| 2026-05-06 12:52 | 40.29538 | 52.41810 | 34922 ft | 523 kts | 110° |
| 2026-05-06 12:52 | 40.27762 | 52.51086 | 35163 ft | 527 kts | 110° |
| 2026-05-06 12:52 | 40.26870 | 52.55735 | 35534 ft | 525 kts | 110° |
| 2026-05-06 12:53 | 40.25980 | 52.60365 | 35949 ft | 522 kts | 110° |
| 2026-05-06 12:53 | 40.25097 | 52.64980 | 36355 ft | 522 kts | 110° |
| 2026-05-06 12:53 | 40.24232 | 52.69581 | 36696 ft | 520 kts | 110° |
| 2026-05-06 12:53 | 40.23348 | 52.74175 | 36852 ft | 522 kts | 110° |
| 2026-05-06 12:54 | 40.22452 | 52.78782 | 36887 ft | 521 kts | 110° |
| 2026-05-06 12:54 | 40.20681 | 52.87892 | 36907 ft | 511 kts | 110° |
| 2026-05-06 12:55 | 40.18919 | 52.96785 | 36911 ft | 507 kts | 111° |
| 2026-05-06 12:55 | 40.17175 | 53.05722 | 36907 ft | 508 kts | 111° |
| 2026-05-06 12:56 | 40.15410 | 53.14666 | 36907 ft | 509 kts | 110° |
| 2026-05-06 12:56 | 40.13663 | 53.23652 | 36929 ft | 511 kts | 111° |
| 2026-05-06 12:57 | 40.11875 | 53.32658 | 36900 ft | 512 kts | 111° |
| 2026-05-06 12:57 | 40.10068 | 53.41675 | 36928 ft | 515 kts | 111° |
| 2026-05-06 12:58 | 40.08273 | 53.50741 | 36910 ft | 515 kts | 111° |
| 2026-05-06 12:58 | 40.06468 | 53.59779 | 36917 ft | 514 kts | 111° |
| 2026-05-06 12:59 | 40.04635 | 53.68779 | 36910 ft | 512 kts | 111° |
| 2026-05-06 12:59 | 40.02836 | 53.77725 | 36912 ft | 513 kts | 111° |
| 2026-05-06 13:00 | 40.01012 | 53.86722 | 36916 ft | 513 kts | 111° |
| 2026-05-06 13:00 | 39.99198 | 53.95710 | 36928 ft | 512 kts | 111° |
| 2026-05-06 13:01 | 39.97349 | 54.04670 | 36911 ft | 512 kts | 111° |
| 2026-05-06 13:01 | 39.95492 | 54.13635 | 36926 ft | 512 kts | 111° |
| 2026-05-06 13:02 | 39.93660 | 54.22603 | 36916 ft | 512 kts | 111° |
| 2026-05-06 13:02 | 39.91791 | 54.31565 | 36915 ft | 512 kts | 112° |
| 2026-05-06 13:03 | 39.89916 | 54.40511 | 36905 ft | 512 kts | 111° |
| 2026-05-06 13:03 | 39.88047 | 54.49402 | 36911 ft | 512 kts | 112° |
| 2026-05-06 13:04 | 39.86141 | 54.58340 | 36934 ft | 511 kts | 112° |
| 2026-05-06 13:04 | 39.84221 | 54.67262 | 36931 ft | 512 kts | 112° |
| 2026-05-06 13:05 | 39.82298 | 54.76197 | 36931 ft | 513 kts | 112° |
| 2026-05-06 13:05 | 39.80391 | 54.85143 | 36935 ft | 513 kts | 111° |
| 2026-05-06 13:06 | 39.78507 | 54.94052 | 36914 ft | 515 kts | 111° |
| 2026-05-06 13:06 | 39.76592 | 55.03025 | 36936 ft | 515 kts | 111° |
| 2026-05-06 13:07 | 39.74635 | 55.11995 | 36924 ft | 515 kts | 111° |
| 2026-05-06 13:07 | 39.72705 | 55.20983 | 36915 ft | 516 kts | 111° |
| 2026-05-06 13:08 | 39.70752 | 55.29949 | 36931 ft | 516 kts | 111° |
| 2026-05-06 13:08 | 39.68794 | 55.38927 | 36918 ft | 516 kts | 111° |
| 2026-05-06 13:09 | 39.66834 | 55.47812 | 36931 ft | 515 kts | 112° |
| 2026-05-06 13:09 | 39.64857 | 55.56741 | 36902 ft | 515 kts | 112° |
| 2026-05-06 13:10 | 39.62884 | 55.65671 | 36900 ft | 514 kts | 112° |
| 2026-05-06 13:10 | 39.60850 | 55.74563 | 36911 ft | 514 kts | 111° |
| 2026-05-06 13:11 | 39.58896 | 55.83475 | 36929 ft | 513 kts | 111° |
| 2026-05-06 13:11 | 39.56900 | 55.92370 | 36949 ft | 512 kts | 112° |
| 2026-05-06 13:12 | 39.54907 | 56.01242 | 36929 ft | 513 kts | 112° |
| 2026-05-06 13:12 | 39.52916 | 56.10104 | 36903 ft | 513 kts | 112° |
| 2026-05-06 13:13 | 39.50935 | 56.18933 | 36905 ft | 512 kts | 112° |
| 2026-05-06 13:13 | 39.48928 | 56.27782 | 36904 ft | 512 kts | 111° |
| 2026-05-06 13:14 | 39.46933 | 56.36629 | 36910 ft | 511 kts | 112° |
| 2026-05-06 13:14 | 39.44909 | 56.45458 | 36913 ft | 512 kts | 112° |
| 2026-05-06 13:15 | 39.42887 | 56.54307 | 36909 ft | 513 kts | 112° |
| 2026-05-06 13:15 | 39.40863 | 56.63116 | 36913 ft | 514 kts | 112° |
| 2026-05-06 13:16 | 39.38815 | 56.71982 | 36904 ft | 515 kts | 112° |
| 2026-05-06 13:16 | 39.36759 | 56.80864 | 36911 ft | 515 kts | 112° |
| 2026-05-06 13:17 | 39.34580 | 56.89656 | 36899 ft | 513 kts | 114° |
| 2026-05-06 13:17 | 39.32300 | 56.98387 | 36914 ft | 513 kts | 114° |
| 2026-05-06 13:18 | 39.30014 | 57.07126 | 36911 ft | 513 kts | 114° |
| 2026-05-06 13:18 | 39.27791 | 57.15843 | 36861 ft | 515 kts | 113° |
| 2026-05-06 13:19 | 39.25519 | 57.24601 | 36849 ft | 514 kts | 114° |
| 2026-05-06 13:19 | 39.23241 | 57.33337 | 36837 ft | 513 kts | 114° |
| 2026-05-06 13:20 | 39.20970 | 57.42032 | 36819 ft | 511 kts | 114° |
| 2026-05-06 13:20 | 39.18700 | 57.50721 | 36830 ft | 512 kts | 114° |
| 2026-05-06 13:21 | 39.16445 | 57.59411 | 36815 ft | 511 kts | 114° |
| 2026-05-06 13:21 | 39.14144 | 57.68071 | 36828 ft | 511 kts | 114° |
| 2026-05-06 13:22 | 39.11867 | 57.76726 | 36837 ft | 510 kts | 113° |
| 2026-05-06 13:22 | 39.09572 | 57.85361 | 36829 ft | 510 kts | 114° |
| 2026-05-06 13:23 | 39.07223 | 57.94003 | 36832 ft | 512 kts | 114° |
| 2026-05-06 13:23 | 39.04934 | 58.02627 | 36835 ft | 513 kts | 113° |
| 2026-05-06 13:24 | 39.02629 | 58.11319 | 36817 ft | 514 kts | 113° |
| 2026-05-06 13:24 | 39.00286 | 58.20014 | 36814 ft | 513 kts | 113° |
| 2026-05-06 13:25 | 38.97953 | 58.28678 | 36821 ft | 512 kts | 113° |
| 2026-05-06 13:25 | 38.95616 | 58.37321 | 36808 ft | 511 kts | 113° |
| 2026-05-06 13:26 | 38.93275 | 58.45929 | 36798 ft | 511 kts | 113° |
| 2026-05-06 13:26 | 38.90930 | 58.54543 | 36795 ft | 510 kts | 113° |
| 2026-05-06 13:27 | 38.88536 | 58.63107 | 36797 ft | 507 kts | 117° |
| 2026-05-06 13:27 | 38.85497 | 58.71152 | 36802 ft | 502 kts | 122° |
| 2026-05-06 13:28 | 38.82303 | 58.79144 | 36794 ft | 504 kts | 121° |
| 2026-05-06 13:28 | 38.79119 | 58.87146 | 36794 ft | 503 kts | 121° |
| 2026-05-06 13:29 | 38.75943 | 58.95164 | 36801 ft | 504 kts | 121° |
| 2026-05-06 13:29 | 38.72782 | 59.03192 | 36797 ft | 505 kts | 121° |
| 2026-05-06 13:30 | 38.69609 | 59.11209 | 36812 ft | 505 kts | 121° |
| 2026-05-06 13:30 | 38.66418 | 59.19231 | 36808 ft | 506 kts | 121° |
| 2026-05-06 13:31 | 38.63245 | 59.27214 | 36808 ft | 507 kts | 121° |
| 2026-05-06 13:31 | 38.60044 | 59.35260 | 36800 ft | 508 kts | 121° |
| 2026-05-06 13:32 | 38.56894 | 59.43339 | 36808 ft | 508 kts | 119° |
| 2026-05-06 13:32 | 38.53895 | 59.51518 | 36801 ft | 507 kts | 118° |
| 2026-05-06 13:33 | 38.50946 | 59.59706 | 36812 ft | 507 kts | 119° |
| 2026-05-06 13:33 | 38.47914 | 59.67838 | 36794 ft | 508 kts | 119° |
| 2026-05-06 13:34 | 38.44875 | 59.75924 | 36774 ft | 508 kts | 119° |
| 2026-05-06 13:34 | 38.41821 | 59.84052 | 36772 ft | 508 kts | 119° |
| 2026-05-06 13:35 | 38.38770 | 59.92167 | 36775 ft | 507 kts | 119° |
| 2026-05-06 13:35 | 38.35721 | 60.00271 | 36782 ft | 507 kts | 119° |
| 2026-05-06 13:36 | 38.33193 | 60.07020 | 36765 ft | 506 kts | 119° |
| 2026-05-06 13:36 | 38.30125 | 60.15100 | 36773 ft | 506 kts | 119° |
| 2026-05-06 13:37 | 38.27042 | 60.23177 | 36769 ft | 507 kts | 119° |
| 2026-05-06 13:37 | 38.23987 | 60.31253 | 36782 ft | 506 kts | 118° |
| 2026-05-06 13:38 | 38.20935 | 60.39258 | 36775 ft | 506 kts | 119° |
| 2026-05-06 13:38 | 38.17836 | 60.47307 | 36767 ft | 507 kts | 119° |
| 2026-05-06 13:39 | 38.14749 | 60.55336 | 36812 ft | 505 kts | 119° |
| 2026-05-06 13:39 | 38.11659 | 60.63370 | 36817 ft | 506 kts | 119° |
| 2026-05-06 13:40 | 38.08561 | 60.71408 | 36803 ft | 506 kts | 119° |
| 2026-05-06 13:40 | 38.05429 | 60.79415 | 36804 ft | 506 kts | 119° |
| 2026-05-06 13:41 | 38.02327 | 60.87440 | 36780 ft | 506 kts | 119° |
| 2026-05-06 13:41 | 37.99286 | 60.95396 | 36798 ft | 504 kts | 118° |
| 2026-05-06 13:42 | 37.96187 | 61.03368 | 36785 ft | 504 kts | 119° |
| 2026-05-06 13:42 | 37.93055 | 61.11315 | 36782 ft | 504 kts | 119° |
| 2026-05-06 13:43 | 37.89941 | 61.19268 | 36778 ft | 504 kts | 119° |
| 2026-05-06 13:43 | 37.86813 | 61.27214 | 36767 ft | 504 kts | 119° |
| 2026-05-06 13:44 | 37.83736 | 61.35182 | 36766 ft | 504 kts | 119° |
| 2026-05-06 13:44 | 37.80574 | 61.43093 | 36759 ft | 504 kts | 119° |
| 2026-05-06 13:45 | 37.77425 | 61.50987 | 36758 ft | 502 kts | 119° |
| 2026-05-06 13:45 | 37.72743 | 61.62790 | 36754 ft | 503 kts | 119° |
| 2026-05-06 13:46 | 37.69593 | 61.70700 | 36745 ft | 502 kts | 119° |
| 2026-05-06 13:46 | 37.66458 | 61.78563 | 36752 ft | 501 kts | 119° |
| 2026-05-06 13:47 | 37.63350 | 61.86430 | 36756 ft | 501 kts | 119° |
| 2026-05-06 13:47 | 37.59641 | 61.93803 | 36746 ft | 495 kts | 130° |
| 2026-05-06 13:48 | 37.55464 | 62.00711 | 36752 ft | 495 kts | 130° |
| 2026-05-06 13:48 | 37.51366 | 62.07620 | 36750 ft | 496 kts | 130° |
| 2026-05-06 13:49 | 37.47228 | 62.14592 | 36745 ft | 497 kts | 129° |
| 2026-05-06 13:49 | 37.43120 | 62.21591 | 36753 ft | 498 kts | 129° |
| 2026-05-06 13:50 | 37.38987 | 62.28604 | 36749 ft | 498 kts | 129° |
| 2026-05-06 13:50 | 37.34847 | 62.35605 | 36759 ft | 498 kts | 129° |
| 2026-05-06 13:51 | 37.30704 | 62.42593 | 36759 ft | 499 kts | 129° |
| 2026-05-06 13:51 | 37.26560 | 62.49548 | 36756 ft | 500 kts | 129° |
| 2026-05-06 13:52 | 37.22394 | 62.56542 | 36768 ft | 500 kts | 129° |
| 2026-05-06 13:52 | 37.18202 | 62.63542 | 36760 ft | 501 kts | 129° |
| 2026-05-06 13:53 | 37.14039 | 62.70487 | 36770 ft | 501 kts | 129° |
| 2026-05-06 13:53 | 37.09865 | 62.77482 | 36761 ft | 501 kts | 129° |
| 2026-05-06 13:54 | 37.05667 | 62.84459 | 36786 ft | 501 kts | 129° |
| 2026-05-06 13:54 | 37.01465 | 62.91411 | 36781 ft | 501 kts | 129° |
| 2026-05-06 13:55 | 36.97250 | 62.98390 | 36778 ft | 503 kts | 129° |
| 2026-05-06 13:55 | 36.93027 | 63.05375 | 36789 ft | 504 kts | 129° |
| 2026-05-06 13:56 | 36.88822 | 63.12308 | 36792 ft | 505 kts | 129° |
| 2026-05-06 13:56 | 36.84537 | 63.19281 | 36785 ft | 506 kts | 130° |
| 2026-05-06 13:57 | 36.80264 | 63.26271 | 36785 ft | 506 kts | 129° |
| 2026-05-06 13:57 | 36.76029 | 63.33281 | 36790 ft | 506 kts | 129° |
| 2026-05-06 13:58 | 36.71783 | 63.40267 | 36789 ft | 503 kts | 129° |
| 2026-05-06 13:58 | 36.67535 | 63.47202 | 36799 ft | 503 kts | 129° |
| 2026-05-06 13:59 | 36.63295 | 63.54094 | 36789 ft | 504 kts | 129° |
| 2026-05-06 13:59 | 36.59035 | 63.61036 | 36793 ft | 505 kts | 129° |
| 2026-05-06 14:00 | 36.54748 | 63.67974 | 36803 ft | 505 kts | 129° |
| 2026-05-06 14:00 | 36.50459 | 63.74911 | 36811 ft | 505 kts | 129° |
| 2026-05-06 14:01 | 36.46175 | 63.81845 | 36832 ft | 507 kts | 129° |
| 2026-05-06 14:01 | 36.41876 | 63.88771 | 36820 ft | 507 kts | 129° |
| 2026-05-06 14:02 | 36.37556 | 63.95716 | 36829 ft | 508 kts | 129° |
| 2026-05-06 14:02 | 36.33224 | 64.02685 | 36814 ft | 510 kts | 129° |
| 2026-05-06 14:03 | 36.28910 | 64.09598 | 36810 ft | 510 kts | 129° |
| 2026-05-06 14:03 | 36.24562 | 64.16552 | 36804 ft | 511 kts | 129° |
| 2026-05-06 14:04 | 36.20199 | 64.23487 | 36806 ft | 510 kts | 129° |
| 2026-05-06 14:04 | 36.15864 | 64.30437 | 36804 ft | 510 kts | 128° |
| 2026-05-06 14:05 | 36.11646 | 64.37489 | 36802 ft | 509 kts | 127° |
| 2026-05-06 14:05 | 36.07486 | 64.44559 | 36809 ft | 507 kts | 127° |
| 2026-05-06 14:06 | 36.03344 | 64.51619 | 36800 ft | 507 kts | 126° |
| 2026-05-06 14:06 | 35.99196 | 64.58654 | 36815 ft | 506 kts | 128° |
| 2026-05-06 14:07 | 35.94961 | 64.65638 | 36812 ft | 509 kts | 128° |
| 2026-05-06 14:07 | 35.90725 | 64.72645 | 36810 ft | 511 kts | 127° |
| 2026-05-06 14:08 | 35.86513 | 64.79654 | 36830 ft | 512 kts | 127° |
| 2026-05-06 14:08 | 35.82265 | 64.86718 | 36814 ft | 513 kts | 127° |
| 2026-05-06 14:09 | 35.78004 | 64.93793 | 36806 ft | 514 kts | 127° |
| 2026-05-06 14:09 | 35.73732 | 65.00867 | 36837 ft | 515 kts | 127° |
| 2026-05-06 14:10 | 35.69456 | 65.07926 | 36848 ft | 515 kts | 127° |
| 2026-05-06 14:10 | 35.65176 | 65.14981 | 36849 ft | 514 kts | 127° |
| 2026-05-06 14:11 | 35.60896 | 65.22019 | 36851 ft | 514 kts | 127° |
| 2026-05-06 14:11 | 35.56609 | 65.29051 | 36857 ft | 514 kts | 127° |
| 2026-05-06 14:12 | 35.52333 | 65.36035 | 36857 ft | 514 kts | 127° |
| 2026-05-06 14:12 | 35.48046 | 65.43067 | 36858 ft | 513 kts | 127° |
| 2026-05-06 14:13 | 35.43761 | 65.50069 | 36852 ft | 513 kts | 127° |
| 2026-05-06 14:13 | 35.39465 | 65.57054 | 36857 ft | 513 kts | 127° |
| 2026-05-06 14:14 | 35.35172 | 65.64030 | 36852 ft | 513 kts | 127° |
| 2026-05-06 14:14 | 35.30881 | 65.70998 | 36849 ft | 512 kts | 127° |
| 2026-05-06 14:15 | 35.26586 | 65.77949 | 36849 ft | 512 kts | 127° |
| 2026-05-06 14:15 | 35.22289 | 65.84892 | 36863 ft | 512 kts | 128° |
| 2026-05-06 14:16 | 35.17987 | 65.91777 | 36848 ft | 513 kts | 127° |
| 2026-05-06 14:16 | 35.13681 | 65.98751 | 36862 ft | 515 kts | 127° |
| 2026-05-06 14:17 | 35.09337 | 66.05732 | 36867 ft | 516 kts | 127° |
| 2026-05-06 14:17 | 35.04983 | 66.12711 | 36861 ft | 517 kts | 127° |
| 2026-05-06 14:18 | 35.00629 | 66.19672 | 36845 ft | 514 kts | 127° |
| 2026-05-06 14:18 | 34.96299 | 66.26628 | 36852 ft | 514 kts | 127° |
| 2026-05-06 14:19 | 34.91944 | 66.33551 | 36848 ft | 515 kts | 128° |
| 2026-05-06 14:19 | 34.87534 | 66.40434 | 36856 ft | 517 kts | 128° |
| 2026-05-06 14:20 | 34.83133 | 66.47306 | 36855 ft | 519 kts | 128° |
| 2026-05-06 14:20 | 34.78698 | 66.54251 | 36850 ft | 520 kts | 128° |
| 2026-05-06 14:21 | 34.74291 | 66.61260 | 36853 ft | 521 kts | 127° |
| 2026-05-06 14:21 | 34.69839 | 66.68206 | 36853 ft | 520 kts | 128° |
| 2026-05-06 14:22 | 34.65395 | 66.75056 | 36850 ft | 519 kts | 128° |
| 2026-05-06 14:22 | 34.60966 | 66.81975 | 36848 ft | 519 kts | 128° |
| 2026-05-06 14:23 | 34.56525 | 66.88895 | 36847 ft | 519 kts | 128° |
| 2026-05-06 14:23 | 34.52063 | 66.95778 | 36842 ft | 519 kts | 128° |
| 2026-05-06 14:24 | 34.47589 | 67.02647 | 36846 ft | 519 kts | 128° |
| 2026-05-06 14:24 | 34.43138 | 67.09527 | 36840 ft | 517 kts | 128° |
| 2026-05-06 14:25 | 34.38693 | 67.16364 | 36845 ft | 517 kts | 128° |
| 2026-05-06 14:25 | 34.34990 | 67.22041 | 36839 ft | 518 kts | 128° |
| 2026-05-06 14:26 | 34.30515 | 67.28896 | 36843 ft | 519 kts | 128° |
| 2026-05-06 14:26 | 34.26023 | 67.35761 | 36834 ft | 521 kts | 128° |
| 2026-05-06 14:27 | 34.21505 | 67.42631 | 36843 ft | 522 kts | 128° |
| 2026-05-06 14:27 | 34.16988 | 67.49524 | 36844 ft | 522 kts | 128° |
| 2026-05-06 14:28 | 34.12498 | 67.56349 | 36829 ft | 523 kts | 128° |
| 2026-05-06 14:28 | 34.07955 | 67.63221 | 36850 ft | 523 kts | 127° |
| 2026-05-06 14:29 | 34.03466 | 67.70112 | 36799 ft | 522 kts | 128° |
| 2026-05-06 14:29 | 33.98891 | 67.76870 | 36806 ft | 519 kts | 127° |
| 2026-05-06 14:30 | 33.94424 | 67.83718 | 36797 ft | 522 kts | 129° |
| 2026-05-06 14:30 | 33.89793 | 67.90459 | 36802 ft | 523 kts | 128° |
| 2026-05-06 14:31 | 33.85115 | 67.97167 | 36808 ft | 524 kts | 128° |
| 2026-05-06 14:31 | 33.80584 | 68.03993 | 36802 ft | 521 kts | 128° |
| 2026-05-06 14:32 | 33.76058 | 68.10828 | 36795 ft | 524 kts | 127° |
| 2026-05-06 14:32 | 33.71503 | 68.17603 | 36791 ft | 525 kts | 129° |
| 2026-05-06 14:33 | 33.66845 | 68.24331 | 36809 ft | 524 kts | 128° |
| 2026-05-06 14:33 | 33.62244 | 68.31145 | 36801 ft | 524 kts | 128° |
| 2026-05-06 14:34 | 33.57627 | 68.37890 | 36802 ft | 521 kts | 128° |
| 2026-05-06 14:34 | 33.52992 | 68.44587 | 36804 ft | 520 kts | 129° |
| 2026-05-06 14:35 | 33.48339 | 68.51220 | 36789 ft | 521 kts | 130° |
| 2026-05-06 14:35 | 33.43594 | 68.57818 | 36782 ft | 525 kts | 130° |
| 2026-05-06 14:36 | 33.38821 | 68.64466 | 36786 ft | 528 kts | 130° |
| 2026-05-06 14:36 | 33.34067 | 68.71124 | 36782 ft | 531 kts | 130° |
| 2026-05-06 14:37 | 33.29267 | 68.77852 | 36772 ft | 531 kts | 130° |
| 2026-05-06 14:37 | 33.24613 | 68.84708 | 36775 ft | 530 kts | 127° |
| 2026-05-06 14:38 | 33.20128 | 68.91708 | 36776 ft | 530 kts | 126° |
| 2026-05-06 14:38 | 33.15658 | 68.98711 | 36767 ft | 530 kts | 126° |
| 2026-05-06 14:39 | 33.11168 | 69.05677 | 36777 ft | 528 kts | 127° |
| 2026-05-06 14:39 | 33.06679 | 69.12595 | 36777 ft | 527 kts | 127° |
| 2026-05-06 14:40 | 33.02223 | 69.19469 | 36763 ft | 526 kts | 127° |
| 2026-05-06 14:40 | 32.97733 | 69.26383 | 36762 ft | 527 kts | 127° |
| 2026-05-06 14:41 | 32.93234 | 69.33286 | 36753 ft | 529 kts | 127° |
| 2026-05-06 14:41 | 32.88718 | 69.40210 | 36760 ft | 529 kts | 127° |
| 2026-05-06 14:42 | 32.84192 | 69.47119 | 36761 ft | 530 kts | 127° |
| 2026-05-06 14:42 | 32.79644 | 69.54031 | 36763 ft | 531 kts | 127° |
| 2026-05-06 14:43 | 32.75080 | 69.60976 | 36777 ft | 534 kts | 127° |
| 2026-05-06 14:43 | 32.70527 | 69.67887 | 36760 ft | 535 kts | 127° |
| 2026-05-06 14:44 | 32.65920 | 69.74831 | 36752 ft | 535 kts | 127° |
| 2026-05-06 14:45 | 32.59031 | 69.85229 | 36750 ft | 534 kts | 127° |
| 2026-05-06 14:45 | 32.54435 | 69.92153 | 36755 ft | 535 kts | 127° |
| 2026-05-06 14:46 | 32.49837 | 69.99097 | 36748 ft | 535 kts | 128° |
| 2026-05-06 14:46 | 32.45210 | 70.06007 | 36756 ft | 535 kts | 127° |
| 2026-05-06 14:47 | 32.40575 | 70.12930 | 36759 ft | 536 kts | 128° |
| 2026-05-06 14:47 | 32.35978 | 70.19836 | 36764 ft | 537 kts | 127° |
| 2026-05-06 14:48 | 32.31433 | 70.26851 | 36756 ft | 537 kts | 126° |
| 2026-05-06 14:48 | 32.26907 | 70.33879 | 36745 ft | 537 kts | 127° |
| 2026-05-06 14:49 | 32.22368 | 70.40898 | 36754 ft | 536 kts | 127° |
| 2026-05-06 14:49 | 32.17833 | 70.47884 | 36752 ft | 536 kts | 127° |
| 2026-05-06 14:50 | 32.13321 | 70.54810 | 36745 ft | 535 kts | 127° |
| 2026-05-06 14:50 | 32.08784 | 70.61777 | 36752 ft | 534 kts | 127° |
| 2026-05-06 14:51 | 32.04254 | 70.68718 | 36746 ft | 534 kts | 127° |
| 2026-05-06 14:51 | 31.99716 | 70.75645 | 36765 ft | 534 kts | 127° |
| 2026-05-06 14:52 | 31.95160 | 70.82599 | 36748 ft | 537 kts | 127° |
| 2026-05-06 14:52 | 31.90727 | 70.89673 | 36741 ft | 536 kts | 121° |
| 2026-05-06 14:53 | 31.87181 | 70.97371 | 36748 ft | 534 kts | 115° |
| 2026-05-06 14:53 | 31.83771 | 71.05149 | 36744 ft | 535 kts | 116° |
| 2026-05-06 14:54 | 31.80315 | 71.12888 | 36737 ft | 534 kts | 116° |
| 2026-05-06 14:54 | 31.76835 | 71.20588 | 36734 ft | 534 kts | 116° |
| 2026-05-06 14:55 | 31.73372 | 71.28254 | 36742 ft | 535 kts | 116° |
| 2026-05-06 14:55 | 31.69876 | 71.35965 | 36741 ft | 535 kts | 116° |
| 2026-05-06 14:56 | 31.66372 | 71.43676 | 36738 ft | 535 kts | 116° |
| 2026-05-06 14:56 | 31.62872 | 71.51375 | 36749 ft | 533 kts | 116° |
| 2026-05-06 14:57 | 31.59371 | 71.59052 | 36760 ft | 533 kts | 116° |
| 2026-05-06 14:57 | 31.55867 | 71.66716 | 36730 ft | 533 kts | 116° |
| 2026-05-06 14:58 | 31.52347 | 71.74379 | 36746 ft | 533 kts | 116° |
| 2026-05-06 14:58 | 31.48871 | 71.81995 | 36743 ft | 533 kts | 116° |